Woodville, Illinois
Current Conditions -  °F | °C
As of 1:54 PM on Thursday 23 Oct 2014 (Local Time) from KSET Reporting Station
Few Clouds Few Clouds  
Wind Chill: 63°   Ceiling: Unl
Heat Index: 63°   Visibility: 10mi
Dew Point: 44°   Wind: 7mph
Humidity: 50%   Direction: 180°S
Pressure: 30.13"   Gusts: NA
Location:  39.2901°N, 90.5384°W
Report Text: KSET 231854Z AUTO 18006KT 10SM FEW055 17/07 A3013 RMK AO2 SLP201 T01720067 $
Loading
Personal Weather Stations






























Interactive Weather Map
Tropical Storm Tracking
New forecast layout! Learn more

10-Day Weather Forecast

Advertisements
Track Severe Weather on mobile